createdAt,value
2018-03-24T00:01:08.237Z,94.90
2018-03-24T00:03:35.697Z,94.90
2018-03-24T00:06:03.158Z,95.10
2018-03-24T00:08:30.617Z,94.90
2018-03-24T00:10:58.074Z,95.00
2018-03-24T00:13:25.540Z,95.50
2018-03-24T00:15:52.997Z,94.70
2018-03-24T00:18:20.460Z,94.70
2018-03-24T00:20:47.904Z,94.80
2018-03-24T00:23:15.364Z,94.20
2018-03-24T00:25:42.827Z,93.80
2018-03-24T00:28:10.300Z,94.00
2018-03-24T00:30:37.753Z,95.00
2018-03-24T00:33:05.217Z,94.90
2018-03-24T00:35:32.677Z,95.20
2018-03-24T00:38:00.163Z,95.30
2018-03-24T00:40:27.628Z,95.20
2018-03-24T00:42:55.089Z,95.10
2018-03-24T00:45:22.561Z,95.30
2018-03-24T00:47:50.014Z,95.30
2018-03-24T00:50:17.478Z,95.50
2018-03-24T00:52:44.940Z,95.40
2018-03-24T00:55:12.408Z,95.70
2018-03-24T00:57:39.861Z,95.40
2018-03-24T01:00:07.334Z,95.70
2018-03-24T01:02:34.791Z,95.50
2018-03-24T01:05:02.254Z,95.80
2018-03-24T01:07:29.717Z,95.70
2018-03-24T01:09:57.189Z,95.40
2018-03-24T01:12:24.642Z,95.60
2018-03-24T01:14:52.101Z,95.10
2018-03-24T01:17:19.583Z,95.00
2018-03-24T01:19:47.065Z,95.60
2018-03-24T01:22:15.281Z,96.20
2018-03-24T01:24:42.749Z,96.10
2018-03-24T01:27:10.208Z,95.50
2018-03-24T01:29:37.688Z,95.90
2018-03-24T01:32:05.153Z,95.30
2018-03-24T01:34:32.622Z,95.10
2018-03-24T01:37:00.081Z,95.40
2018-03-24T01:39:27.545Z,95.00
2018-03-24T01:41:55.001Z,95.40
2018-03-24T01:44:22.460Z,95.60
2018-03-24T01:46:49.909Z,95.40
2018-03-24T01:49:17.357Z,94.70
2018-03-24T01:51:44.821Z,95.70
2018-03-24T01:54:12.286Z,95.50
2018-03-24T01:56:39.743Z,95.40
2018-03-24T01:59:07.197Z,95.40
2018-03-24T02:01:35.434Z,95.00
2018-03-24T02:04:02.891Z,94.90
2018-03-24T02:06:30.361Z,95.20
2018-03-24T02:08:57.828Z,95.70
2018-03-24T02:11:25.302Z,96.50
2018-03-24T02:13:52.749Z,96.20
2018-03-24T02:16:20.226Z,96.50
2018-03-24T02:18:47.668Z,96.40
2018-03-24T02:21:15.529Z,95.70
2018-03-24T02:23:42.986Z,94.90
2018-03-24T02:26:10.452Z,95.20
2018-03-24T02:28:37.910Z,95.00
2018-03-24T02:31:05.381Z,96.00
2018-03-24T02:33:32.830Z,95.60
2018-03-24T02:36:00.300Z,95.10
2018-03-24T02:38:27.762Z,95.70
2018-03-24T02:40:55.222Z,95.80
2018-03-24T02:43:22.690Z,96.70
2018-03-24T02:45:50.148Z,96.50
2018-03-24T02:48:17.621Z,96.60
2018-03-24T02:50:45.078Z,96.90
2018-03-24T02:53:12.560Z,97.00
2018-03-24T02:55:40.019Z,98.10
2018-03-24T02:58:07.492Z,97.00
2018-03-24T03:00:35.734Z,97.60
2018-03-24T03:03:03.188Z,97.50
2018-03-24T03:05:30.673Z,98.10
2018-03-24T03:07:58.128Z,97.40
2018-03-24T03:10:25.579Z,96.10
2018-03-24T03:12:53.038Z,95.80
2018-03-24T03:15:20.494Z,95.80
2018-03-24T03:17:47.964Z,95.70
2018-03-24T03:20:15.421Z,95.90
2018-03-24T03:22:42.891Z,95.90
2018-03-24T03:25:10.344Z,96.20
2018-03-24T03:27:37.829Z,95.50
2018-03-24T03:30:05.283Z,95.30
2018-03-24T03:32:32.747Z,95.40
2018-03-24T03:35:00.201Z,95.30
2018-03-24T03:37:27.657Z,95.40
2018-03-24T03:39:55.122Z,95.30
2018-03-24T03:42:22.620Z,95.80
2018-03-24T03:44:50.074Z,96.30
2018-03-24T03:47:17.536Z,96.30
2018-03-24T03:49:44.993Z,96.20
2018-03-24T03:52:12.445Z,96.40
2018-03-24T03:54:39.905Z,96.60
2018-03-24T03:57:07.358Z,96.80
2018-03-24T03:59:34.822Z,96.70
2018-03-24T04:02:02.268Z,96.80
2018-03-24T04:04:29.733Z,96.60
2018-03-24T04:06:57.198Z,97.40
2018-03-24T04:09:25.507Z,97.70
2018-03-24T04:11:52.962Z,97.70
2018-03-24T04:14:20.419Z,97.50
2018-03-24T04:16:47.875Z,97.30
2018-03-24T04:19:15.325Z,97.20
2018-03-24T04:21:42.791Z,97.40
2018-03-24T04:24:10.262Z,96.70
2018-03-24T04:26:37.726Z,96.80
2018-03-24T04:29:05.185Z,96.30
2018-03-24T04:31:32.667Z,96.40
2018-03-24T04:34:00.120Z,96.40
2018-03-24T04:36:27.594Z,96.90
2018-03-24T04:38:55.048Z,96.80
2018-03-24T04:41:22.502Z,97.20
2018-03-24T04:43:55.065Z,96.70
2018-03-24T04:46:22.516Z,97.00
2018-03-24T04:48:50.009Z,97.10
2018-03-24T04:51:17.465Z,97.20
2018-03-24T04:53:44.926Z,97.50
2018-03-24T04:56:12.383Z,97.30
2018-03-24T04:58:39.849Z,97.30
2018-03-24T05:01:07.314Z,97.30
2018-03-24T05:03:34.776Z,96.60
2018-03-24T05:06:02.229Z,96.80
2018-03-24T05:08:29.693Z,97.00
2018-03-24T05:10:57.165Z,96.60
2018-03-24T05:13:24.618Z,96.50
2018-03-24T05:15:52.101Z,96.50
2018-03-24T05:18:19.584Z,96.00
2018-03-24T05:20:47.052Z,96.40
2018-03-24T05:23:14.553Z,96.50
2018-03-24T05:25:42.043Z,96.90
2018-03-24T05:28:10.315Z,96.60
2018-03-24T05:30:37.797Z,96.40
2018-03-24T05:33:05.256Z,96.50
2018-03-24T05:35:32.738Z,96.60
2018-03-24T05:38:00.190Z,97.00
2018-03-24T05:40:27.653Z,97.30
2018-03-24T05:42:55.111Z,97.10
2018-03-24T05:45:22.573Z,96.80
2018-03-24T05:47:50.034Z,96.30
2018-03-24T05:50:17.502Z,96.80
2018-03-24T05:52:44.952Z,97.00
2018-03-24T05:55:12.409Z,96.80
2018-03-24T05:57:39.877Z,96.80
2018-03-24T06:00:07.340Z,96.90
2018-03-24T06:02:34.795Z,97.40
2018-03-24T06:05:02.258Z,97.40
2018-03-24T06:07:29.712Z,97.50
2018-03-24T06:09:57.174Z,96.90
2018-03-24T06:12:24.661Z,97.10
2018-03-24T06:14:52.112Z,97.10
2018-03-24T06:17:19.617Z,97.60
2018-03-24T06:19:47.838Z,97.90
2018-03-24T06:22:15.296Z,97.90
2018-03-24T06:24:42.755Z,97.80
2018-03-24T06:27:10.211Z,97.90
2018-03-24T06:29:37.676Z,97.70
2018-03-24T06:32:05.896Z,98.60
2018-03-24T06:34:33.373Z,98.30
2018-03-24T06:37:12.582Z,98.40
2018-03-24T06:39:40.033Z,99.50
2018-03-24T06:42:07.503Z,99.10
2018-03-24T06:44:34.956Z,98.80
2018-03-24T06:47:02.437Z,98.60
2018-03-24T06:49:29.907Z,98.50
2018-03-24T06:51:57.381Z,98.70
2018-03-24T06:54:24.990Z,99.40
2018-03-24T06:56:52.479Z,99.90
2018-03-24T06:59:19.942Z,99.90
2018-03-24T07:01:47.406Z,99.90
2018-03-24T07:07:05.458Z,99.90
2018-03-24T07:09:32.922Z,99.90
2018-03-24T07:12:02.405Z,99.90
2018-03-24T07:14:29.866Z,99.90
2018-03-24T07:16:57.353Z,99.90
2018-03-24T07:19:24.808Z,99.90
2018-03-24T07:21:52.273Z,99.90
2018-03-24T07:24:19.739Z,99.90
2018-03-24T07:26:47.207Z,99.90
2018-03-24T07:29:14.666Z,99.90
2018-03-24T07:31:42.138Z,99.90
2018-03-24T07:34:09.617Z,99.90
2018-03-24T07:36:37.122Z,99.90
2018-03-24T07:39:04.593Z,99.90
2018-03-24T07:41:32.056Z,99.90
2018-03-24T07:43:59.514Z,99.70
2018-03-24T07:46:26.979Z,99.50
2018-03-24T07:48:54.462Z,99.50
2018-03-24T07:51:21.938Z,99.50
2018-03-24T07:53:49.458Z,99.50
2018-03-24T07:56:16.872Z,99.50
2018-03-24T07:58:44.333Z,99.70
2018-03-24T08:01:11.803Z,99.60
2018-03-24T08:03:39.267Z,99.60
2018-03-24T08:06:06.714Z,99.80
2018-03-24T08:08:39.550Z,99.80
2018-03-24T08:11:07.010Z,99.40
2018-03-24T08:13:34.483Z,99.50
2018-03-24T08:16:01.939Z,99.70
2018-03-24T08:18:29.414Z,99.50
2018-03-24T08:20:56.861Z,99.50
2018-03-24T08:23:24.316Z,99.60
2018-03-24T08:25:52.537Z,99.90
2018-03-24T08:28:20.007Z,99.90
2018-03-24T08:30:47.462Z,99.80
2018-03-24T08:33:14.937Z,99.90
2018-03-24T08:35:42.389Z,99.10
2018-03-24T08:38:09.854Z,99.90
2018-03-24T08:40:37.311Z,99.90
2018-03-24T08:43:04.814Z,99.90
2018-03-24T08:45:32.233Z,99.40
2018-03-24T08:47:59.695Z,99.90
2018-03-24T08:50:27.166Z,99.50
2018-03-24T08:52:54.643Z,99.70
2018-03-24T08:55:22.110Z,99.50
2018-03-24T08:57:49.553Z,99.60
2018-03-24T09:00:17.020Z,99.50
2018-03-24T09:02:44.480Z,99.70
2018-03-24T09:05:11.938Z,99.30
2018-03-24T09:07:39.396Z,98.60
2018-03-24T09:10:07.618Z,99.10
2018-03-24T09:12:35.068Z,99.10
2018-03-24T09:15:02.528Z,99.30
2018-03-24T09:17:29.989Z,98.80
2018-03-24T09:19:57.464Z,98.30
2018-03-24T09:22:25.876Z,98.70
2018-03-24T09:24:53.354Z,98.70
2018-03-24T09:27:20.814Z,99.00
2018-03-24T09:29:48.302Z,98.50
2018-03-24T09:32:15.756Z,98.50
2018-03-24T09:34:43.218Z,98.70
2018-03-24T09:37:10.683Z,98.60
2018-03-24T09:39:38.915Z,98.10
2018-03-24T09:42:07.149Z,98.40
2018-03-24T09:44:34.610Z,98.40
2018-03-24T09:47:02.075Z,97.80
2018-03-24T09:49:29.544Z,97.80
2018-03-24T09:51:57.020Z,97.90
2018-03-24T09:54:24.536Z,98.20
2018-03-24T09:56:52.006Z,98.60
2018-03-24T09:59:19.489Z,98.50
2018-03-24T10:01:46.951Z,97.70
2018-03-24T10:04:14.422Z,97.70
2018-03-24T10:06:41.897Z,98.10
2018-03-24T10:09:09.410Z,97.80
2018-03-24T10:11:37.613Z,97.80
2018-03-24T10:14:05.071Z,97.80
2018-03-24T10:16:32.533Z,98.00
2018-03-24T10:18:59.982Z,98.10
2018-03-24T10:24:31.857Z,97.50
2018-03-24T10:26:59.322Z,97.40
2018-03-24T10:29:26.793Z,97.00
2018-03-24T10:31:54.313Z,96.90
2018-03-24T10:34:22.535Z,96.80
2018-03-24T10:36:50.018Z,96.80
2018-03-24T10:39:17.494Z,96.70
2018-03-24T10:41:44.966Z,96.60
2018-03-24T10:44:12.420Z,96.40
2018-03-24T10:46:39.894Z,95.90
2018-03-24T10:49:07.352Z,96.00
2018-03-24T10:51:34.838Z,96.80
2018-03-24T10:54:02.299Z,95.80
2018-03-24T10:56:29.784Z,95.60
2018-03-24T10:58:57.241Z,95.10
2018-03-24T11:01:24.728Z,95.40
2018-03-24T11:03:52.207Z,94.20
2018-03-24T11:06:19.677Z,94.90
2018-03-24T11:08:47.154Z,94.40
2018-03-24T11:11:14.620Z,90.80
2018-03-24T11:13:42.845Z,80.00
2018-03-24T11:16:10.325Z,79.50
2018-03-24T11:18:37.785Z,81.30
2018-03-24T11:21:05.245Z,85.00
2018-03-24T11:23:32.702Z,82.50
2018-03-24T11:26:00.161Z,79.80
2018-03-24T11:28:27.621Z,78.80
2018-03-24T11:30:55.101Z,72.30
2018-03-24T11:33:22.557Z,71.50
2018-03-24T11:35:50.020Z,75.60
2018-03-24T11:38:17.487Z,73.00
2018-03-24T11:40:44.962Z,74.10
2018-03-24T11:43:12.433Z,69.00
2018-03-24T11:45:39.922Z,73.00
2018-03-24T11:48:08.151Z,71.60
2018-03-24T11:50:35.623Z,71.60
2018-03-24T11:53:03.099Z,74.10
2018-03-24T11:55:30.555Z,74.20
2018-03-24T11:58:00.010Z,74.20
2018-03-24T12:00:27.463Z,73.80
2018-03-24T12:02:55.704Z,73.20
2018-03-24T12:05:23.156Z,73.20
2018-03-24T12:07:50.612Z,72.40
2018-03-24T12:10:18.082Z,70.70
2018-03-24T12:12:45.545Z,67.80
2018-03-24T12:15:13.020Z,72.20
2018-03-24T12:17:40.501Z,66.20
2018-03-24T12:20:07.970Z,67.80
2018-03-24T12:22:35.445Z,66.80
2018-03-24T12:25:03.674Z,68.80
2018-03-24T12:27:31.151Z,68.80
2018-03-24T12:29:58.630Z,70.90
2018-03-24T12:32:26.856Z,70.20
2018-03-24T12:34:54.343Z,70.20
2018-03-24T12:37:21.820Z,68.90
2018-03-24T12:39:49.287Z,67.10
2018-03-24T12:42:16.754Z,71.10
2018-03-24T12:44:44.228Z,70.10
2018-03-24T12:47:11.703Z,66.50
2018-03-24T12:49:39.933Z,67.10
2018-03-24T12:52:07.392Z,67.10
2018-03-24T12:54:34.862Z,68.00
2018-03-24T12:57:02.353Z,66.50
2018-03-24T12:59:29.840Z,67.90
2018-03-24T13:01:58.066Z,68.20
2018-03-24T13:04:25.567Z,68.10
2018-03-24T13:06:53.820Z,64.90
2018-03-24T13:09:21.283Z,65.60
2018-03-24T13:11:48.750Z,65.70
2018-03-24T13:14:16.233Z,66.40
2018-03-24T13:16:44.467Z,65.40
2018-03-24T13:19:11.939Z,65.40
2018-03-24T13:21:39.397Z,68.20
2018-03-24T13:24:06.877Z,66.30
2018-03-24T13:26:34.396Z,64.80
2018-03-24T13:29:01.818Z,62.80
2018-03-24T13:31:29.290Z,63.90
2018-03-24T13:33:57.528Z,62.10
2018-03-24T13:36:24.999Z,62.10
2018-03-24T13:38:52.484Z,63.20
2018-03-24T13:41:19.947Z,64.50
2018-03-24T13:43:47.433Z,60.30
2018-03-24T13:46:15.685Z,59.90
2018-03-24T13:48:43.170Z,60.10
2018-03-24T13:51:11.405Z,60.60
2018-03-24T13:53:38.880Z,60.70
2018-03-24T13:56:06.352Z,62.90
2018-03-24T13:58:33.821Z,58.60
2018-03-24T14:01:01.288Z,58.40
2018-03-24T14:03:29.543Z,57.80
2018-03-24T14:05:57.006Z,57.70
2018-03-24T14:08:24.477Z,61.20
2018-03-24T14:10:51.952Z,60.60
2018-03-24T14:13:19.428Z,60.40
2018-03-24T14:15:47.678Z,58.00
2018-03-24T14:18:15.154Z,58.00
2018-03-24T14:20:42.647Z,59.80
2018-03-24T14:23:10.905Z,58.90
2018-03-24T14:25:38.373Z,59.00
2018-03-24T14:28:06.612Z,59.80
2018-03-24T14:30:34.076Z,59.90
2018-03-24T14:33:01.538Z,58.90
2018-03-24T14:35:29.006Z,59.30
2018-03-24T14:37:56.486Z,58.70
2018-03-24T14:40:23.977Z,59.00
2018-03-24T14:42:52.203Z,59.70
2018-03-24T14:45:19.687Z,59.70
2018-03-24T14:47:47.155Z,59.60
2018-03-24T14:50:14.624Z,57.10
2018-03-24T14:52:42.108Z,59.80
2018-03-24T14:55:10.373Z,58.20
2018-03-24T14:57:37.826Z,58.30
2018-03-24T15:00:05.313Z,58.60
2018-03-24T15:02:33.545Z,57.60
2018-03-24T15:05:01.012Z,57.60
2018-03-24T15:07:28.473Z,59.40
2018-03-24T15:09:55.953Z,54.50
2018-03-24T15:12:23.471Z,56.80
2018-03-24T15:14:50.906Z,56.80
2018-03-24T15:17:19.152Z,57.90
2018-03-24T15:19:46.625Z,57.90
2018-03-24T15:22:14.134Z,57.50
2018-03-24T15:24:41.605Z,57.40
2018-03-24T15:27:09.094Z,58.80
2018-03-24T15:29:48.292Z,56.60
2018-03-24T15:32:27.735Z,57.10
2018-03-24T15:35:07.199Z,58.80
2018-03-24T15:37:34.658Z,56.20
2018-03-24T15:40:02.139Z,57.70
2018-03-24T15:42:29.611Z,57.60
2018-03-24T15:44:57.076Z,57.30
2018-03-24T15:47:25.375Z,57.50
2018-03-24T15:49:53.597Z,57.20
2018-03-24T15:52:21.063Z,57.20
2018-03-24T15:54:48.530Z,56.80
2018-03-24T15:57:16.001Z,56.80
2018-03-24T15:59:43.453Z,57.60
2018-03-24T16:02:10.932Z,57.50
2018-03-24T16:04:38.389Z,58.40
2018-03-24T16:07:05.882Z,58.90
2018-03-24T16:09:34.119Z,58.00
2018-03-24T16:12:01.596Z,58.00
2018-03-24T16:14:29.068Z,57.80
2018-03-24T16:16:56.532Z,58.30
2018-03-24T16:19:24.001Z,59.00
2018-03-24T16:21:51.480Z,58.00
2018-03-24T16:24:19.706Z,58.40
2018-03-24T16:26:47.191Z,58.40
2018-03-24T16:29:14.671Z,58.20
2018-03-24T16:31:42.143Z,58.50
2018-03-24T16:34:10.382Z,58.50
2018-03-24T16:36:37.845Z,58.60
2018-03-24T16:39:05.324Z,60.00
2018-03-24T16:41:32.813Z,59.30
2018-03-24T16:44:01.043Z,59.50
2018-03-24T16:46:28.506Z,59.30
2018-03-24T16:48:55.952Z,60.80
2018-03-24T16:51:23.438Z,60.80
2018-03-24T16:53:50.894Z,60.20
2018-03-24T16:56:18.361Z,60.60
2018-03-24T16:58:45.833Z,60.10
2018-03-24T17:01:13.306Z,61.00
2018-03-24T17:03:40.793Z,60.00
2018-03-24T17:06:09.026Z,62.10
2018-03-24T17:08:36.496Z,62.10
2018-03-24T17:11:03.967Z,63.20
2018-03-24T17:13:31.445Z,62.40
2018-03-24T17:15:58.918Z,63.40
2018-03-24T17:18:27.158Z,63.70
2018-03-24T17:20:54.626Z,63.70
2018-03-24T17:23:22.122Z,63.20
2018-03-24T17:25:49.573Z,63.20
2018-03-24T17:28:17.062Z,63.90
2018-03-24T17:30:44.528Z,63.70
2018-03-24T17:33:12.015Z,64.80
2018-03-24T17:35:39.458Z,64.60
2018-03-24T17:38:06.933Z,64.70
2018-03-24T17:40:34.393Z,64.90
2018-03-24T17:43:01.875Z,65.40
2018-03-24T17:45:29.338Z,66.30
2018-03-24T17:47:56.816Z,65.90
2018-03-24T17:50:24.274Z,66.80
2018-03-24T17:52:51.749Z,68.90
2018-03-24T17:55:19.210Z,68.80
2018-03-24T17:57:46.663Z,69.90
2018-03-24T18:00:14.125Z,69.70
2018-03-24T18:02:41.608Z,70.70
2018-03-24T18:05:09.102Z,69.00
2018-03-24T18:07:36.544Z,70.30
2018-03-24T18:10:04.079Z,69.80
2018-03-24T18:12:32.238Z,70.60
2018-03-24T18:14:59.715Z,70.60
2018-03-24T18:17:27.213Z,71.30
2018-03-24T18:19:54.731Z,71.30
2018-03-24T18:22:22.204Z,70.90
2018-03-24T18:24:49.668Z,71.00
2018-03-24T18:27:17.129Z,71.30
2018-03-24T18:29:44.607Z,72.00
2018-03-24T18:32:12.058Z,71.20
2018-03-24T18:34:39.541Z,72.20
2018-03-24T18:37:07.014Z,72.50
2018-03-24T18:39:34.490Z,72.60
2018-03-24T18:42:02.718Z,73.60
2018-03-24T18:44:30.185Z,73.60
2018-03-24T18:46:57.648Z,73.90
2018-03-24T18:49:25.113Z,74.70
2018-03-24T18:51:52.567Z,74.60
2018-03-24T18:54:20.041Z,75.10
2018-03-24T18:56:47.506Z,75.70
2018-03-24T18:59:14.969Z,76.00
2018-03-24T19:01:42.432Z,76.10
2018-03-24T19:04:09.911Z,76.10
2018-03-24T19:06:37.377Z,76.40
2018-03-24T19:09:06.806Z,76.80
2018-03-24T19:11:35.049Z,78.20
2018-03-24T19:14:02.501Z,78.20
2018-03-24T19:16:29.966Z,78.50
2018-03-24T19:18:57.423Z,78.30
2018-03-24T19:21:24.883Z,78.10
2018-03-24T19:23:52.355Z,77.60
2018-03-24T19:26:20.806Z,77.30
2018-03-24T19:28:48.266Z,77.60
2018-03-24T19:31:15.744Z,77.30
2018-03-24T19:33:43.197Z,77.10
2018-03-24T19:36:10.669Z,78.30
2018-03-24T19:38:38.138Z,78.30
2018-03-24T19:41:05.620Z,79.30
2018-03-24T19:43:33.083Z,79.40
2018-03-24T19:46:00.557Z,79.80
2018-03-24T19:48:28.026Z,80.90
2018-03-24T19:50:55.512Z,81.30
2018-03-24T19:53:23.756Z,80.60
2018-03-24T19:55:51.225Z,80.60
2018-03-24T19:58:18.687Z,80.20
2018-03-24T20:00:46.152Z,81.00
2018-03-24T20:03:13.652Z,80.60
2018-03-24T20:05:41.115Z,80.50
2018-03-24T20:08:08.585Z,80.90
2018-03-24T20:10:36.148Z,81.00
2018-03-24T20:13:03.622Z,81.50
2018-03-24T20:15:31.080Z,82.30
2018-03-24T20:17:58.542Z,83.30
2018-03-24T20:20:26.014Z,83.60
2018-03-24T20:22:53.494Z,83.60
2018-03-24T20:25:21.933Z,84.20
2018-03-24T20:27:50.168Z,82.80
2018-03-24T20:30:17.617Z,82.70
2018-03-24T20:32:45.076Z,83.20
2018-03-24T20:35:12.547Z,84.10
2018-03-24T20:37:40.038Z,84.50
2018-03-24T20:40:07.494Z,84.70
2018-03-24T20:42:34.975Z,84.70
2018-03-24T20:45:03.198Z,85.40
2018-03-24T20:47:30.669Z,85.40
2018-03-24T20:49:58.136Z,85.70
2018-03-24T20:52:25.599Z,85.60
2018-03-24T20:54:53.059Z,85.50
2018-03-24T20:57:20.517Z,86.50
2018-03-24T20:59:47.984Z,86.70
2018-03-24T21:02:15.496Z,86.60
2018-03-24T21:04:43.754Z,86.40
2018-03-24T21:07:11.214Z,86.40
2018-03-24T21:09:38.682Z,86.40
2018-03-24T21:12:06.931Z,87.20
2018-03-24T21:14:34.390Z,86.70
2018-03-24T21:17:01.888Z,86.60
2018-03-24T21:19:29.342Z,86.70
2018-03-24T21:21:56.805Z,87.30
2018-03-24T21:24:24.315Z,87.50
2018-03-24T21:26:52.592Z,86.90
2018-03-24T21:29:20.061Z,86.80
2018-03-24T21:31:47.534Z,86.50
2018-03-24T21:34:14.993Z,86.90
2018-03-24T21:36:43.223Z,87.90
2018-03-24T21:39:10.683Z,87.80
2018-03-24T21:41:38.135Z,87.80
2018-03-24T21:44:05.601Z,88.10
2018-03-24T21:46:34.043Z,87.60
2018-03-24T21:49:01.508Z,87.80
2018-03-24T21:51:28.972Z,87.90
2018-03-24T21:53:56.458Z,87.80
2018-03-24T21:56:23.928Z,88.60
2018-03-24T21:58:51.451Z,88.30
2018-03-24T22:01:18.873Z,88.50
2018-03-24T22:03:46.347Z,87.60
2018-03-24T22:06:14.558Z,88.00
2018-03-24T22:08:42.021Z,88.00
2018-03-24T22:11:09.485Z,87.50
2018-03-24T22:13:36.961Z,87.40
2018-03-24T22:16:05.175Z,88.60
2018-03-24T22:18:32.635Z,88.60
2018-03-24T22:21:00.121Z,89.10
2018-03-24T22:23:28.329Z,90.00
2018-03-24T22:25:55.801Z,89.90
2018-03-24T22:28:24.034Z,90.10
2018-03-24T22:30:51.519Z,90.00
2018-03-24T22:33:19.741Z,88.90
2018-03-24T22:35:47.204Z,88.90
2018-03-24T22:38:14.667Z,89.30
2018-03-24T22:40:42.137Z,90.10
2018-03-24T22:43:09.594Z,90.20
2018-03-24T22:45:37.059Z,90.30
2018-03-24T22:48:05.490Z,89.70
2018-03-24T22:50:33.715Z,90.00
2018-03-24T22:53:01.174Z,90.00
2018-03-24T22:55:28.647Z,90.00
2018-03-24T22:57:56.109Z,90.60
2018-03-24T23:00:23.565Z,90.70
2018-03-24T23:02:51.034Z,90.50
2018-03-24T23:05:18.510Z,90.80
2018-03-24T23:07:45.978Z,90.30
2018-03-24T23:10:13.453Z,90.30
2018-03-24T23:12:40.901Z,90.00
2018-03-24T23:15:08.365Z,90.40
2018-03-24T23:17:35.822Z,91.00
2018-03-24T23:20:03.285Z,90.70
2018-03-24T23:22:30.749Z,90.60
2018-03-24T23:24:58.217Z,91.00
2018-03-24T23:27:25.677Z,91.30
2018-03-24T23:29:53.124Z,90.80
2018-03-24T23:32:20.606Z,90.80
2018-03-24T23:34:48.088Z,91.50
2018-03-24T23:37:15.550Z,91.70
2018-03-24T23:39:43.017Z,91.10
2018-03-24T23:42:10.480Z,91.00
2018-03-24T23:44:37.948Z,91.00
2018-03-24T23:47:06.183Z,90.90
2018-03-24T23:49:33.648Z,90.90
2018-03-24T23:52:01.122Z,90.80
2018-03-24T23:54:28.564Z,91.30
2018-03-24T23:56:56.027Z,91.60
2018-03-24T23:59:23.495Z,91.20
